createdAt,value
2023-03-22T00:02:17.344Z,88.76
2023-03-22T00:04:45.772Z,88.39
2023-03-22T00:07:13.791Z,88.25
2023-03-22T00:09:42.021Z,88.21
2023-03-22T00:12:10.048Z,88.42
2023-03-22T00:14:38.278Z,88.45
2023-03-22T00:17:06.746Z,88.26
2023-03-22T00:19:34.862Z,87.72
2023-03-22T00:22:03.735Z,88.75
2023-03-22T00:24:32.949Z,88.87
2023-03-22T00:27:01.043Z,88.53
2023-03-22T00:29:29.160Z,88.02
2023-03-22T00:31:57.271Z,87.73
2023-03-22T00:34:27.164Z,87.96
2023-03-22T00:36:56.432Z,87.96
2023-03-22T00:39:24.568Z,87.73
2023-03-22T00:41:53.024Z,87.83
2023-03-22T00:44:21.440Z,87.53
2023-03-22T00:46:49.565Z,87.40
2023-03-22T00:49:18.988Z,87.14
2023-03-22T00:51:47.375Z,87.49
2023-03-22T00:54:17.161Z,87.91
2023-03-22T00:56:46.003Z,87.48
2023-03-22T00:59:15.675Z,87.50
2023-03-22T01:01:44.575Z,86.64
2023-03-22T01:04:18.238Z,86.88
2023-03-22T01:06:47.410Z,86.85
2023-03-22T01:09:15.817Z,86.76
2023-03-22T01:11:45.774Z,86.65
2023-03-22T01:14:14.221Z,87.02
2023-03-22T01:16:42.587Z,87.52
2023-03-22T01:19:11.010Z,87.92
2023-03-22T01:21:39.980Z,87.23
2023-03-22T01:24:08.799Z,87.18
2023-03-22T01:26:37.828Z,86.85
2023-03-22T01:29:06.125Z,86.77
2023-03-22T01:31:34.972Z,87.39
2023-03-22T01:34:04.066Z,87.05
2023-03-22T01:36:32.910Z,86.64
2023-03-22T01:39:01.227Z,86.01
2023-03-22T01:41:35.060Z,87.32
2023-03-22T01:44:09.209Z,86.90
2023-03-22T01:46:38.096Z,87.61
2023-03-22T01:49:12.401Z,86.53
2023-03-22T01:51:43.852Z,86.38
2023-03-22T01:54:54.543Z,87.32
2023-03-22T01:57:44.019Z,88.13
2023-03-22T02:00:20.796Z,86.93
2023-03-22T02:03:37.631Z,86.63
2023-03-22T02:06:06.798Z,87.24
2023-03-22T02:08:35.041Z,87.02
2023-03-22T02:11:12.737Z,86.91
2023-03-22T02:13:59.961Z,87.90
2023-03-22T02:17:06.935Z,87.24
2023-03-22T02:19:52.145Z,87.07
2023-03-22T02:22:50.194Z,86.30
2023-03-22T02:25:46.006Z,85.92
2023-03-22T02:28:33.456Z,86.65
2023-03-22T02:31:22.475Z,86.35
2023-03-22T02:33:57.347Z,86.44
2023-03-22T02:37:03.819Z,87.57
2023-03-22T02:39:38.290Z,87.33
2023-03-22T02:42:21.886Z,87.49
2023-03-22T02:44:50.890Z,86.18
2023-03-22T02:48:11.671Z,85.88
2023-03-22T02:50:43.452Z,86.12
2023-03-22T02:53:41.310Z,86.27
2023-03-22T02:56:28.995Z,86.27
2023-03-22T02:59:01.756Z,86.12
2023-03-22T03:01:41.378Z,86.48
2023-03-22T03:04:28.808Z,87.20
2023-03-22T03:07:09.800Z,86.52
2023-03-22T03:09:41.896Z,87.88
2023-03-22T03:12:34.309Z,86.82
2023-03-22T03:15:02.419Z,86.91
2023-03-22T03:17:36.511Z,86.46
2023-03-22T03:20:08.552Z,86.00
2023-03-22T03:22:49.027Z,86.19
2023-03-22T03:25:32.756Z,86.78
2023-03-22T03:28:11.723Z,87.85
2023-03-22T03:30:49.894Z,88.06
2023-03-22T03:33:21.487Z,89.42
2023-03-22T03:36:08.486Z,88.98
2023-03-22T03:38:42.721Z,89.10
2023-03-22T03:41:16.457Z,88.29
2023-03-22T03:43:47.959Z,88.20
2023-03-22T03:46:17.495Z,88.58
2023-03-22T03:48:49.840Z,88.31
2023-03-22T03:51:18.008Z,89.91
2023-03-22T03:53:47.353Z,90.46
2023-03-22T03:56:15.993Z,89.76
2023-03-22T03:58:46.299Z,88.92
2023-03-22T04:01:14.726Z,88.91
2023-03-22T04:03:55.741Z,90.64
2023-03-22T04:06:39.784Z,90.71
2023-03-22T04:09:12.114Z,90.61
2023-03-22T04:11:43.365Z,90.13
2023-03-22T04:14:12.244Z,91.08
2023-03-22T04:16:40.667Z,89.88
2023-03-22T04:19:11.153Z,88.98
2023-03-22T04:21:39.736Z,89.99
2023-03-22T04:24:08.776Z,89.35
2023-03-22T04:26:39.262Z,89.27
2023-03-22T04:29:16.457Z,90.00
2023-03-22T04:31:48.833Z,89.53
2023-03-22T04:34:26.653Z,89.65
2023-03-22T04:37:02.615Z,89.91
2023-03-22T04:39:50.763Z,89.17
2023-03-22T04:42:59.068Z,89.36
2023-03-22T04:45:44.225Z,88.93
2023-03-22T04:48:13.850Z,88.66
2023-03-22T04:50:42.171Z,88.22
2023-03-22T04:53:12.673Z,88.91
2023-03-22T04:55:43.090Z,89.21
2023-03-22T04:58:11.770Z,89.83
2023-03-22T05:00:42.537Z,89.67
2023-03-22T05:03:11.723Z,88.96
2023-03-22T05:05:53.875Z,88.90
2023-03-22T05:08:26.799Z,89.10
2023-03-22T05:10:57.074Z,89.28
2023-03-22T05:13:27.914Z,88.88
2023-03-22T05:15:58.114Z,88.42
2023-03-22T05:18:30.652Z,87.72
2023-03-22T05:21:04.068Z,87.12
2023-03-22T05:23:33.058Z,87.87
2023-03-22T05:26:04.393Z,88.02
2023-03-22T05:28:33.329Z,87.81
2023-03-22T05:31:11.128Z,88.18
2023-03-22T05:33:46.809Z,87.47
2023-03-22T05:36:17.385Z,87.35
2023-03-22T05:39:04.196Z,88.23
2023-03-22T05:41:36.368Z,88.85
2023-03-22T05:44:05.645Z,88.74
2023-03-22T05:46:34.436Z,88.37
2023-03-22T05:49:20.955Z,84.58
2023-03-22T05:51:50.768Z,82.14
2023-03-22T05:54:20.896Z,78.90
2023-03-22T05:56:53.540Z,74.63
2023-03-22T05:59:23.506Z,71.43
2023-03-22T06:01:52.154Z,70.88
2023-03-22T06:04:23.008Z,72.71
2023-03-22T06:07:14.450Z,69.27
2023-03-22T06:09:46.303Z,67.44
2023-03-22T06:12:20.013Z,68.00
2023-03-22T06:14:51.356Z,68.14
2023-03-22T06:17:45.963Z,68.45
2023-03-22T06:20:17.157Z,68.44
2023-03-22T06:22:51.102Z,68.08
2023-03-22T06:25:19.842Z,68.35
2023-03-22T06:27:49.093Z,68.67
2023-03-22T06:30:18.372Z,67.13
2023-03-22T06:33:04.346Z,66.09
2023-03-22T06:35:34.631Z,66.61
2023-03-22T06:38:03.141Z,66.08
2023-03-22T06:40:31.608Z,67.16
2023-03-22T06:43:03.263Z,67.69
2023-03-22T06:45:33.608Z,67.64
2023-03-22T06:48:02.822Z,67.00
2023-03-22T06:50:54.293Z,66.33
2023-03-22T06:53:49.242Z,66.34
2023-03-22T06:56:17.492Z,65.46
2023-03-22T06:58:51.983Z,64.16
2023-03-22T07:01:21.836Z,64.21
2023-03-22T07:03:51.313Z,63.54
2023-03-22T07:06:23.205Z,63.28
2023-03-22T07:08:52.303Z,61.85
2023-03-22T07:11:26.667Z,61.43
2023-03-22T07:13:59.978Z,60.94
2023-03-22T07:16:34.014Z,61.31
2023-03-22T07:19:04.642Z,61.11
2023-03-22T07:21:33.244Z,61.13
2023-03-22T07:24:07.910Z,60.93
2023-03-22T07:26:41.150Z,58.92
2023-03-22T07:29:10.756Z,57.40
2023-03-22T07:31:40.414Z,56.67
2023-03-22T07:34:12.485Z,57.46
2023-03-22T07:37:04.267Z,54.89
2023-03-22T07:39:32.748Z,56.02
2023-03-22T07:42:01.099Z,56.08
2023-03-22T07:44:42.314Z,56.88
2023-03-22T07:47:40.759Z,57.10
2023-03-22T07:50:17.071Z,56.24
2023-03-22T07:52:47.507Z,55.65
2023-03-22T07:55:15.880Z,55.50
2023-03-22T07:57:44.150Z,54.98
2023-03-22T08:00:14.043Z,55.17
2023-03-22T08:02:46.836Z,54.79
2023-03-22T08:05:42.530Z,55.58
2023-03-22T08:08:13.832Z,55.23
2023-03-22T08:10:42.281Z,56.03
2023-03-22T08:13:10.900Z,57.21
2023-03-22T08:15:39.665Z,58.23
2023-03-22T08:18:09.030Z,59.24
2023-03-22T08:20:41.764Z,59.77
2023-03-22T08:23:17.219Z,60.23
2023-03-22T08:26:09.806Z,59.85
2023-03-22T08:28:38.667Z,59.39
2023-03-22T08:31:15.570Z,59.34
2023-03-22T08:33:46.287Z,60.30
2023-03-22T08:36:17.906Z,58.96
2023-03-22T08:38:53.785Z,57.03
2023-03-22T08:41:25.344Z,56.87
2023-03-22T08:43:53.720Z,58.02
2023-03-22T08:46:22.412Z,57.78
2023-03-22T08:48:51.843Z,57.71
2023-03-22T08:51:27.213Z,56.68
2023-03-22T08:54:04.440Z,56.72
2023-03-22T08:57:03.760Z,56.38
2023-03-22T08:59:42.789Z,57.14
2023-03-22T09:02:50.421Z,56.59
2023-03-22T09:05:19.074Z,54.52
2023-03-22T09:07:52.577Z,52.42
2023-03-22T09:10:32.836Z,51.36
2023-03-22T09:13:01.439Z,50.51
2023-03-22T09:15:29.808Z,47.30
2023-03-22T09:18:12.288Z,46.37
2023-03-22T09:20:40.774Z,48.14
2023-03-22T09:23:09.545Z,44.73
2023-03-22T09:25:38.388Z,46.78
2023-03-22T09:28:07.201Z,45.57
2023-03-22T09:30:36.914Z,44.08
2023-03-22T09:33:06.892Z,43.09
2023-03-22T09:35:35.306Z,43.16
2023-03-22T09:38:07.300Z,42.80
2023-03-22T09:40:39.617Z,43.08
2023-03-22T09:43:12.510Z,41.83
2023-03-22T09:45:49.978Z,41.92
2023-03-22T09:48:23.140Z,43.32
2023-03-22T09:50:54.159Z,43.78
2023-03-22T09:53:26.947Z,44.26
2023-03-22T09:56:07.294Z,44.80
2023-03-22T09:58:42.812Z,45.47
2023-03-22T10:01:21.170Z,45.64
2023-03-22T10:04:12.798Z,46.03
2023-03-22T10:06:49.525Z,45.13
2023-03-22T10:09:32.971Z,43.43
2023-03-22T10:12:14.152Z,42.82
2023-03-22T10:15:06.853Z,43.10
2023-03-22T10:17:36.738Z,43.79
2023-03-22T10:20:22.515Z,43.95
2023-03-22T10:22:53.578Z,43.22
2023-03-22T10:25:28.145Z,42.95
2023-03-22T10:27:58.583Z,42.42
2023-03-22T10:30:33.247Z,42.35
2023-03-22T10:33:03.499Z,43.25
2023-03-22T10:35:32.747Z,42.96
2023-03-22T10:38:04.976Z,43.39
2023-03-22T10:40:35.620Z,42.78
2023-03-22T10:43:21.150Z,42.58
2023-03-22T10:45:52.880Z,42.74
2023-03-22T10:48:33.791Z,42.52
2023-03-22T10:51:02.421Z,41.82
2023-03-22T10:53:41.094Z,42.94
2023-03-22T10:56:15.470Z,43.26
2023-03-22T10:58:43.696Z,42.56
2023-03-22T11:01:14.909Z,41.64
2023-03-22T11:03:48.789Z,41.77
2023-03-22T11:06:26.619Z,41.30
2023-03-22T11:08:58.879Z,41.54
2023-03-22T11:11:28.841Z,41.74
2023-03-22T11:14:14.300Z,42.65
2023-03-22T11:16:56.284Z,42.22
2023-03-22T11:19:32.457Z,42.52
2023-03-22T11:22:03.219Z,43.41
2023-03-22T11:24:34.059Z,43.42
2023-03-22T11:27:06.939Z,43.00
2023-03-22T11:29:48.781Z,43.11
2023-03-22T11:32:33.662Z,43.48
2023-03-22T11:35:14.097Z,44.03
2023-03-22T11:37:43.680Z,44.37
2023-03-22T11:40:24.056Z,44.21
2023-03-22T11:42:55.560Z,45.60
2023-03-22T11:45:37.332Z,46.53
2023-03-22T11:48:09.786Z,47.31
2023-03-22T11:50:40.986Z,47.25
2023-03-22T11:53:17.080Z,47.96
2023-03-22T11:55:48.853Z,48.18
2023-03-22T11:58:55.560Z,48.83
2023-03-22T12:01:35.984Z,48.21
2023-03-22T12:04:09.581Z,48.25
2023-03-22T12:06:41.272Z,48.25
2023-03-22T12:09:19.451Z,48.25
2023-03-22T12:11:52.131Z,48.19
2023-03-22T12:14:33.442Z,47.63
2023-03-22T12:17:10.807Z,47.09
2023-03-22T12:19:57.255Z,47.43
2023-03-22T12:22:32.785Z,45.99
2023-03-22T12:25:03.463Z,45.40
2023-03-22T12:27:37.730Z,44.67
2023-03-22T12:30:14.552Z,43.74
2023-03-22T12:32:51.567Z,42.80
2023-03-22T12:35:29.585Z,43.08
2023-03-22T12:38:02.138Z,43.05
2023-03-22T12:40:38.099Z,42.08
2023-03-22T12:43:25.962Z,42.15
2023-03-22T12:45:59.563Z,42.21
2023-03-22T12:48:35.120Z,42.58
2023-03-22T12:51:07.693Z,42.44
2023-03-22T12:53:42.826Z,42.96
2023-03-22T12:56:25.546Z,42.54
2023-03-22T12:59:01.835Z,42.75
2023-03-22T13:01:53.989Z,42.10
2023-03-22T13:04:30.039Z,42.30
2023-03-22T13:07:41.605Z,42.77
2023-03-22T13:10:40.483Z,42.45
2023-03-22T13:13:24.440Z,42.42
2023-03-22T13:16:11.294Z,42.29
2023-03-22T13:18:59.423Z,41.92
2023-03-22T13:21:31.995Z,41.77
2023-03-22T13:24:10.328Z,41.64
2023-03-22T13:26:51.689Z,40.86
2023-03-22T13:29:38.316Z,40.79
2023-03-22T13:32:29.989Z,41.00
2023-03-22T13:34:58.402Z,40.70
2023-03-22T13:37:35.161Z,40.75
2023-03-22T13:40:27.912Z,41.01
2023-03-22T13:43:30.014Z,41.11
2023-03-22T13:46:05.710Z,41.38
2023-03-22T13:48:56.375Z,40.67
2023-03-22T13:51:30.538Z,40.52
2023-03-22T13:54:14.937Z,41.52
2023-03-22T13:57:00.730Z,41.97
2023-03-22T13:59:34.034Z,41.45
2023-03-22T14:02:18.797Z,41.74
2023-03-22T14:04:57.261Z,42.15
2023-03-22T14:07:41.858Z,42.36
2023-03-22T14:10:18.845Z,42.33
2023-03-22T14:12:51.623Z,42.19
2023-03-22T14:15:32.764Z,41.56
2023-03-22T14:18:17.896Z,41.73
2023-03-22T14:20:51.892Z,40.55
